createdAt,value
2022-12-22T00:02:44.752Z,7.10
2022-12-22T00:05:46.055Z,7.10
2022-12-22T00:08:31.707Z,7.00
2022-12-22T00:11:17.986Z,7.20
2022-12-22T00:14:05.399Z,7.00
2022-12-22T00:16:53.303Z,7.00
2022-12-22T00:19:42.846Z,6.90
2022-12-22T00:22:32.943Z,6.90
2022-12-22T00:25:19.676Z,6.80
2022-12-22T00:28:05.162Z,6.80
2022-12-22T00:30:53.179Z,6.80
2022-12-22T00:33:39.768Z,6.80
2022-12-22T00:36:30.704Z,6.80
2022-12-22T00:39:16.970Z,6.70
2022-12-22T00:42:02.594Z,6.80
2022-12-22T00:44:48.000Z,6.80
2022-12-22T00:47:43.528Z,6.70
2022-12-22T00:50:29.891Z,6.80
2022-12-22T00:53:20.319Z,6.80
2022-12-22T00:56:06.291Z,6.80
2022-12-22T00:58:52.932Z,6.80
2022-12-22T01:01:38.534Z,6.80
2022-12-22T01:04:24.534Z,7.00
2022-12-22T01:07:10.495Z,6.80
2022-12-22T01:09:58.116Z,6.80
2022-12-22T01:12:46.508Z,6.80
2022-12-22T01:15:34.845Z,6.80
2022-12-22T01:18:20.938Z,6.90
2022-12-22T01:21:06.723Z,6.90
2022-12-22T01:23:52.746Z,6.90
2022-12-22T01:26:40.068Z,6.90
2022-12-22T01:29:28.022Z,6.90
2022-12-22T01:32:15.802Z,6.90
2022-12-22T01:35:03.561Z,7.10
2022-12-22T01:37:49.031Z,7.00
2022-12-22T01:40:40.072Z,6.90
2022-12-22T01:43:51.306Z,7.00
2022-12-22T01:46:41.062Z,7.00
2022-12-22T01:49:28.635Z,7.00
2022-12-22T01:52:16.543Z,7.00
2022-12-22T01:55:04.899Z,7.10
2022-12-22T01:57:51.545Z,7.20
2022-12-22T02:00:39.102Z,7.20
2022-12-22T02:03:34.671Z,7.20
2022-12-22T02:06:33.506Z,7.30
2022-12-22T02:09:39.238Z,7.30
2022-12-22T02:12:34.735Z,7.30
2022-12-22T02:15:25.945Z,7.40
2022-12-22T02:18:25.211Z,7.40
2022-12-22T02:21:14.462Z,7.50
2022-12-22T02:24:14.115Z,7.50
2022-12-22T02:27:05.056Z,7.70
2022-12-22T02:29:55.150Z,7.60
2022-12-22T02:32:42.031Z,7.60
2022-12-22T02:35:33.008Z,7.60
2022-12-22T02:38:25.360Z,7.60
2022-12-22T02:41:21.348Z,7.60
2022-12-22T02:44:32.571Z,7.70
2022-12-22T02:47:24.735Z,7.60
2022-12-22T02:50:13.522Z,7.80
2022-12-22T02:53:01.503Z,7.60
2022-12-22T02:55:50.045Z,7.60
2022-12-22T02:58:37.007Z,7.60
2022-12-22T03:01:25.737Z,7.60
2022-12-22T03:04:11.653Z,7.60
2022-12-22T03:06:59.427Z,7.60
2022-12-22T03:09:44.918Z,7.60
2022-12-22T03:12:30.422Z,7.70
2022-12-22T03:15:19.164Z,7.60
2022-12-22T03:18:07.270Z,7.50
2022-12-22T03:20:55.820Z,7.70
2022-12-22T03:23:41.404Z,7.50
2022-12-22T03:26:11.802Z,7.70
2022-12-22T03:28:40.158Z,7.70
2022-12-22T03:31:08.891Z,7.70
2022-12-22T03:33:38.936Z,7.70
2022-12-22T03:36:08.576Z,7.70
2022-12-22T03:38:37.064Z,7.70
2022-12-22T03:41:06.199Z,7.70
2022-12-22T03:43:51.584Z,7.80
2022-12-22T03:46:32.110Z,7.80
2022-12-22T03:49:12.984Z,7.80
2022-12-22T03:51:44.116Z,7.80
2022-12-22T03:54:14.104Z,7.90
2022-12-22T03:56:43.357Z,7.90
2022-12-22T03:59:11.971Z,7.90
2022-12-22T04:01:44.284Z,8.00
2022-12-22T04:04:16.308Z,8.00
2022-12-22T04:06:45.061Z,8.00
2022-12-22T04:09:13.858Z,8.00
2022-12-22T04:11:59.693Z,8.00
2022-12-22T04:14:33.919Z,8.00
2022-12-22T04:17:04.029Z,8.10
2022-12-22T04:19:34.121Z,8.10
2022-12-22T04:22:02.783Z,8.10
2022-12-22T04:24:31.283Z,8.10
2022-12-22T04:26:59.567Z,8.20
2022-12-22T04:29:29.971Z,8.20
2022-12-22T04:31:58.566Z,8.20
2022-12-22T04:34:26.966Z,8.20
2022-12-22T04:37:02.323Z,8.20
2022-12-22T04:39:35.513Z,8.10
2022-12-22T04:42:03.837Z,8.20
2022-12-22T04:44:34.279Z,8.40
2022-12-22T04:47:02.570Z,8.20
2022-12-22T04:49:30.908Z,8.20
2022-12-22T04:52:00.661Z,8.20
2022-12-22T04:54:29.035Z,8.20
2022-12-22T04:56:57.438Z,8.20
2022-12-22T04:59:26.201Z,8.10
2022-12-22T05:01:54.844Z,8.20
2022-12-22T05:04:23.964Z,8.10
2022-12-22T05:06:52.366Z,8.10
2022-12-22T05:09:22.180Z,8.10
2022-12-22T05:11:50.419Z,8.10
2022-12-22T05:14:18.706Z,8.20
2022-12-22T05:16:46.978Z,8.10
2022-12-22T05:19:15.747Z,8.10
2022-12-22T05:21:44.363Z,8.20
2022-12-22T05:24:12.594Z,8.20
2022-12-22T05:26:42.254Z,8.20
2022-12-22T05:29:10.607Z,8.20
2022-12-22T05:31:43.319Z,8.30
2022-12-22T05:34:15.181Z,8.30
2022-12-22T05:36:43.564Z,8.30
2022-12-22T05:39:11.899Z,8.30
2022-12-22T05:41:44.482Z,8.30
2022-12-22T05:44:13.055Z,8.30
2022-12-22T05:46:41.571Z,8.30
2022-12-22T05:49:10.315Z,8.30
2022-12-22T05:51:38.655Z,8.30
2022-12-22T05:54:07.083Z,8.30
2022-12-22T05:56:35.308Z,8.30
2022-12-22T05:59:06.905Z,8.30
2022-12-22T06:01:35.419Z,8.30
2022-12-22T06:04:04.064Z,8.20
2022-12-22T06:06:32.852Z,8.50
2022-12-22T06:09:01.954Z,8.30
2022-12-22T06:11:30.635Z,8.30
2022-12-22T06:13:59.301Z,8.30
2022-12-22T06:16:30.670Z,8.30
2022-12-22T06:19:00.459Z,8.40
2022-12-22T06:21:28.935Z,8.40
2022-12-22T06:24:06.475Z,8.30
2022-12-22T06:26:39.044Z,8.40
2022-12-22T06:29:07.951Z,8.40
2022-12-22T06:31:39.025Z,8.40
2022-12-22T06:34:10.962Z,8.40
2022-12-22T06:36:40.364Z,8.40
2022-12-22T06:39:08.851Z,8.40
2022-12-22T06:41:54.562Z,8.40
2022-12-22T06:44:25.799Z,8.40
2022-12-22T06:47:01.757Z,8.40
2022-12-22T06:49:30.178Z,8.40
2022-12-22T06:52:00.641Z,8.50
2022-12-22T06:54:29.187Z,8.70
2022-12-22T06:57:00.357Z,8.60
2022-12-22T06:59:29.026Z,8.60
2022-12-22T07:02:20.425Z,8.60
2022-12-22T07:04:57.958Z,8.50
2022-12-22T07:08:07.804Z,8.70
2022-12-22T07:10:54.949Z,8.70
2022-12-22T07:19:49.841Z,8.70
2022-12-22T07:22:40.548Z,8.70
2022-12-22T07:25:10.033Z,8.70
2022-12-22T07:27:48.638Z,8.70
2022-12-22T07:30:26.195Z,8.70
2022-12-22T07:32:57.462Z,8.70
2022-12-22T07:35:42.095Z,8.70
2022-12-22T07:38:19.088Z,8.80
2022-12-22T07:41:05.292Z,8.80
2022-12-22T07:43:33.249Z,8.90
2022-12-22T07:46:01.815Z,8.90
2022-12-22T07:48:51.828Z,9.00
2022-12-22T07:51:28.768Z,9.00
2022-12-22T07:53:57.356Z,9.10
2022-12-22T07:56:25.902Z,9.10
2022-12-22T07:58:54.660Z,9.10
2022-12-22T08:01:23.462Z,9.20
2022-12-22T08:03:52.068Z,9.20
2022-12-22T08:06:25.658Z,9.20
2022-12-22T08:08:54.656Z,9.30
2022-12-22T08:11:47.791Z,9.30
2022-12-22T08:14:19.649Z,9.40
2022-12-22T08:17:00.950Z,9.40
2022-12-22T08:22:52.941Z,9.60
2022-12-22T08:25:32.980Z,9.70
2022-12-22T08:32:02.705Z,9.80
2022-12-22T08:35:04.227Z,10.00
2022-12-22T08:38:01.466Z,10.10
2022-12-22T08:40:37.264Z,10.20
2022-12-22T08:43:32.227Z,10.20
2022-12-22T08:46:36.521Z,10.40
2022-12-22T08:49:48.078Z,10.50
2022-12-22T08:52:25.464Z,10.50
2022-12-22T09:02:58.562Z,11.00
2022-12-22T09:12:35.908Z,11.30
2022-12-22T09:19:40.193Z,11.50
2022-12-22T09:22:32.091Z,11.50
2022-12-22T09:25:08.678Z,11.60
2022-12-22T09:27:58.653Z,11.60
2022-12-22T09:30:42.456Z,11.80
2022-12-22T09:33:17.766Z,11.90
2022-12-22T09:35:53.587Z,11.90
2022-12-22T09:38:34.185Z,11.90
2022-12-22T09:41:16.908Z,11.90
2022-12-22T09:43:56.739Z,11.80
2022-12-22T09:46:31.842Z,12.10
2022-12-22T09:49:06.008Z,12.10
2022-12-22T09:51:51.272Z,12.20
2022-12-22T09:54:52.791Z,12.40
2022-12-22T09:57:22.426Z,12.30
2022-12-22T10:00:01.322Z,12.30
2022-12-22T10:03:03.354Z,12.30
2022-12-22T10:05:59.197Z,12.60
2022-12-22T10:08:47.440Z,12.40
2022-12-22T10:14:19.061Z,12.50
2022-12-22T10:17:16.933Z,12.60
2022-12-22T10:19:53.368Z,12.70
2022-12-22T10:22:41.895Z,12.50
2022-12-22T10:28:56.931Z,12.70
2022-12-22T10:40:49.184Z,12.60
2022-12-22T10:43:33.186Z,12.60
2022-12-22T10:46:10.254Z,12.60
2022-12-22T10:48:44.254Z,12.60
2022-12-22T10:51:19.456Z,12.60
2022-12-22T10:53:52.803Z,12.60
2022-12-22T10:56:33.458Z,12.50
2022-12-22T10:59:15.351Z,12.50
2022-12-22T11:02:06.255Z,12.50
2022-12-22T11:04:36.463Z,12.50
2022-12-22T11:07:44.641Z,12.50
2022-12-22T11:10:29.255Z,12.60
2022-12-22T11:13:38.318Z,12.50
2022-12-22T11:16:55.115Z,12.50
2022-12-22T11:19:56.612Z,12.70
2022-12-22T11:22:51.004Z,12.80
2022-12-22T11:26:20.793Z,12.90
2022-12-22T11:29:22.430Z,13.00
2022-12-22T11:32:19.789Z,13.40
2022-12-22T11:35:18.186Z,13.20
2022-12-22T11:38:26.401Z,13.30
2022-12-22T11:41:56.146Z,13.30
2022-12-22T11:44:38.933Z,13.30
2022-12-22T11:47:22.587Z,13.40
2022-12-22T11:51:01.043Z,13.50
2022-12-22T11:53:28.226Z,13.40
2022-12-22T11:56:15.060Z,13.50
2022-12-22T11:59:09.953Z,13.60
2022-12-22T12:02:36.598Z,13.70
2022-12-22T12:05:50.585Z,13.80
2022-12-22T12:26:29.204Z,14.10
2022-12-22T12:29:28.268Z,14.10
2022-12-22T12:33:05.946Z,14.10
2022-12-22T12:44:42.577Z,14.20
2022-12-22T12:47:44.493Z,14.40
2022-12-22T13:06:58.062Z,15.60
2022-12-22T14:32:17.035Z,15.00
2022-12-22T14:35:25.022Z,15.00
2022-12-22T14:38:33.112Z,15.10
2022-12-22T14:41:44.289Z,15.00
2022-12-22T14:47:59.990Z,14.80
2022-12-22T14:50:53.326Z,14.90
2022-12-22T14:53:50.979Z,14.90
2022-12-22T14:56:44.685Z,14.70
2022-12-22T15:00:16.585Z,14.80
2022-12-22T15:03:22.420Z,14.80
2022-12-22T15:06:56.741Z,14.70
2022-12-22T16:28:06.732Z,12.00
2022-12-22T16:31:03.456Z,12.00
2022-12-22T16:33:33.940Z,11.90
2022-12-22T16:36:32.064Z,11.90
2022-12-22T16:39:20.281Z,11.90
2022-12-22T16:42:00.000Z,11.80
2022-12-22T16:45:14.176Z,11.80
2022-12-22T16:52:07.873Z,11.70
2022-12-22T16:54:59.270Z,11.50
2022-12-22T16:58:13.553Z,11.90
2022-12-22T17:00:58.754Z,11.70
2022-12-22T17:03:50.031Z,11.60
2022-12-22T17:06:29.405Z,11.80
2022-12-22T17:09:20.849Z,11.80
2022-12-22T17:12:03.411Z,11.80
2022-12-22T17:15:14.532Z,11.50
2022-12-22T17:17:55.191Z,11.70
2022-12-22T17:23:37.739Z,11.60
2022-12-22T17:26:29.878Z,11.70
2022-12-22T17:29:31.386Z,11.60
2022-12-22T17:32:12.886Z,11.70
2022-12-22T17:35:01.264Z,11.50
2022-12-22T17:37:42.841Z,11.70
2022-12-22T17:40:33.497Z,11.70
2022-12-22T17:43:08.265Z,11.70
2022-12-22T17:45:46.424Z,11.70
2022-12-22T17:51:51.143Z,11.70
2022-12-22T17:54:31.494Z,11.50
2022-12-22T17:57:19.940Z,11.70
2022-12-22T17:59:53.597Z,11.60
2022-12-22T18:02:33.483Z,11.70
2022-12-22T18:05:42.660Z,11.80
2022-12-22T18:08:25.189Z,11.80
2022-12-22T18:11:11.429Z,11.70
2022-12-22T18:14:10.060Z,11.70
2022-12-22T18:16:42.053Z,11.70
2022-12-22T18:19:40.664Z,11.70
2022-12-22T18:22:27.525Z,11.70
2022-12-22T18:25:34.641Z,11.70
2022-12-22T19:20:34.246Z,11.40
2022-12-22T19:27:35.575Z,11.50
2022-12-22T19:37:43.656Z,11.50
2022-12-22T19:40:37.287Z,11.40
2022-12-22T19:43:29.744Z,11.40
2022-12-22T19:46:35.707Z,11.50
2022-12-22T19:49:37.097Z,11.40
2022-12-22T19:52:14.121Z,11.50
2022-12-22T19:55:04.709Z,11.40
2022-12-22T19:57:43.710Z,11.30
2022-12-22T20:00:25.779Z,11.40
2022-12-22T20:03:04.416Z,11.30
2022-12-22T20:08:32.351Z,11.20
2022-12-22T20:11:21.613Z,11.10
2022-12-22T20:14:23.543Z,10.80
2022-12-22T20:16:57.952Z,10.90
2022-12-22T20:19:30.112Z,10.80
2022-12-22T20:22:19.416Z,10.90
2022-12-22T20:25:08.092Z,10.80
2022-12-22T20:27:38.507Z,10.90
2022-12-22T20:30:11.364Z,10.80
2022-12-22T20:32:53.869Z,10.80
2022-12-22T20:35:30.127Z,10.90
2022-12-22T20:38:07.592Z,10.90
2022-12-22T20:41:00.569Z,10.90
2022-12-22T20:43:50.204Z,11.00
2022-12-22T20:47:01.056Z,11.10
2022-12-22T20:52:48.198Z,11.20
2022-12-22T20:55:18.549Z,11.10
2022-12-22T20:57:59.738Z,11.10
2022-12-22T21:00:59.190Z,11.00
2022-12-22T21:03:34.707Z,11.00
2022-12-22T21:06:13.523Z,11.00
2022-12-22T21:08:47.654Z,10.70
2022-12-22T21:11:30.355Z,10.90
2022-12-22T21:30:17.141Z,10.90
2022-12-22T21:33:14.426Z,10.90
2022-12-22T21:35:54.808Z,10.80
2022-12-22T21:38:26.541Z,10.70
2022-12-22T21:40:55.818Z,10.60
2022-12-22T21:43:24.412Z,10.50
2022-12-22T21:45:54.675Z,10.50
2022-12-22T21:48:25.174Z,10.50
2022-12-22T21:50:53.554Z,10.60
2022-12-22T21:53:23.340Z,10.50
2022-12-22T21:55:54.401Z,10.40
2022-12-22T21:58:23.125Z,10.70
2022-12-22T22:00:51.635Z,10.70
2022-12-22T22:03:20.285Z,10.70
2022-12-22T22:05:52.022Z,10.80
2022-12-22T22:08:21.287Z,10.80
2022-12-22T22:10:53.693Z,10.80
2022-12-22T22:13:25.096Z,11.00
2022-12-22T22:15:53.860Z,10.80
2022-12-22T22:18:23.625Z,10.80
2022-12-22T22:20:53.652Z,10.70
2022-12-22T22:23:22.185Z,10.70
2022-12-22T22:25:58.684Z,10.50
2022-12-22T22:28:29.744Z,10.60
2022-12-22T22:30:58.966Z,10.50
2022-12-22T22:33:29.549Z,10.40
2022-12-22T22:36:05.676Z,10.30
2022-12-22T22:38:34.471Z,10.30
2022-12-22T22:41:03.421Z,10.30
2022-12-22T22:43:32.089Z,10.10
2022-12-22T22:46:01.069Z,10.10
2022-12-22T22:48:29.976Z,10.00
2022-12-22T22:51:00.022Z,10.10
2022-12-22T22:53:28.492Z,9.80
2022-12-22T22:55:57.006Z,9.80
2022-12-22T22:58:25.717Z,10.00
2022-12-22T23:00:56.503Z,10.00
2022-12-22T23:03:25.345Z,10.00
2022-12-22T23:06:01.697Z,10.00
2022-12-22T23:08:40.936Z,10.00
2022-12-22T23:11:14.619Z,10.10
2022-12-22T23:13:50.780Z,10.10
2022-12-22T23:16:22.164Z,10.10
2022-12-22T23:18:53.439Z,10.20
2022-12-22T23:21:22.591Z,10.20
2022-12-22T23:23:55.868Z,10.20
2022-12-22T23:26:24.982Z,10.20
2022-12-22T23:28:59.248Z,10.10
2022-12-22T23:31:32.730Z,10.20
2022-12-22T23:34:03.885Z,10.10
2022-12-22T23:36:39.349Z,10.20
2022-12-22T23:39:12.921Z,10.10
2022-12-22T23:41:41.609Z,10.10
2022-12-22T23:44:10.383Z,10.00
2022-12-22T23:46:39.119Z,10.00
2022-12-22T23:49:14.182Z,10.00
2022-12-22T23:51:42.753Z,10.00
